Portada
METAR-TAF:

METAR-TAF

Aeroports :

Aeroport Internacional de Xangai-Pudong

Xangai-Pudong, Xina

latitud: 31-07N, longitud: 121-46E, altitud: 4 m

Observació

L'informe es va fer fa 23 minuts, a les 18:30 UTC
Vent 16 kt del Nord
Temperatura 17°C
Humitat 68%
Pressió 1029 hPa
Visibilitat 10 km o més
Escasses núvols a una alçada de 3300 ft

METAR: ZSPD 141830Z 36008MPS 9999 FEW033 17/11 Q1029 NOSIG

Hora: 02:53 (18:53 UTC)

Pronòstic

L'informe es va fer fa 3 hores i 25 minuts, a les 15:28 UTC
Pronòstic vàlid del 14 a les 18 UTC al 15 a les 18 UTC
Vent 14 kt del Nord/Nord-Est amb ràfegues de 25 kt
Visibilitat: 5000 m
Cel ennuvolat a una alçada de 2000 ft
calitja

TAF: ZSPD 141528Z 1418/1518 02007G13MPS 5000 HZ BKN020 TX20/1506Z TN16/1421Z

Observacions i pronòstics meteorològics de més de 4000 aeroports (METAR i TAF).

Les estacions disponibles són els punts grocs i vermells al mapa.

Posi el ratolí al punt desitjat per veure el nom de l'estació.

Feu clic per veure les observacions i els pronòstics meteorològics.

Per canviar el mapa: feu clic els botons verds amb una creu de color negre per apropar; al botó verd amb un guió per allunyar la imatge; o en les fletxes verdes per a mapes adjacents.


METAR-TAF: